Aviation Digital Data Service (ADDS)

Output produced by METARs form (1717 UTC 20 January 2019)
found at http://www.aviationweather.gov/metar/data/
 
DNAA 201700Z 24007KT 8000 NSC 32/17 Q1012 NOSIG
TAF DNAA 200930Z 2012/2118 24006KT 4000 HZ NSC 
     BECMG 2012/2014 8000 NSW
       
TAF DNAK 200950Z 2012/2118 23010KT 9999 SCT014 
     PROB30 
     TEMPO 2013/2017 TS SCT014 FEW020CB 
     BECMG 2018/2020 VRB02KT 
     PROB30 2106/2108 5000 HZ
       
TAF DNBE 200950Z 2012/2118 25010KT 9999 BKN013 FEW020CB 
     PROB30 2014/2017 TS 
     BECMG 2017/2019 VRB02KT FEW012 
     TEMPO 2105/2107 5000 HZ 
     PROB30 2106/2107 3000 BR
       
TAF DNCA 200930Z 2012/2118 23010KT 8000 BKN013 FEW020CB 
     TEMPO 2013/2019 4000-TSRA BKN008 FEW018CB 
     BECMG 2019/2021 VRB02KT FEW008
       
DNEN 201600Z 28004KT 8000 BKN013 FEW020CB 34/23 Q1010 TEMPO TS
TAF DNEN 200930Z 2012/2118 28010KT 8000 BKN014 
     TEMPO 2013/2018 BKN014 FEW020CB 
     BECMG 2019/2021 VRB02KT FEW008
       
TAF DNIB 200950Z 2012/2118 20010KT 9999 SCT014 
     BECMG 2022/2024 VRB02KT
       
TAF DNIL 200930Z 2012/2118 24009KT 9999 FEW011 
     BECMG 2014/2016 CAVOK
       
TAF DNJO 200930Z 2012/2118 07010KT 6000 NSC 
     BECMG 2012/2014 CAVOK
       
TAF DNKA 200930Z 2012/2118 06010KT CAVOK
       
DNKN 201700Z 03003KT CAVOK 32/08 Q1015 NOSIG
TAF DNKN 200950Z 2012/2118 07008KT 5000 HZ NSC 
     BECMG 2014/2016 CAVOK 
     TEMPO 2106/2112 3000
       
DNMM 201700Z 17005KT 8000 SCT012 FEW020CB 28/26 Q1012 NOSIG
TAF AMD DNMM 201150Z 2012/2118 18010KT 9999 BKN015 
     TEMPO 2012/2015 3000 -TSRA BKN008 FEW018CB 
     PROB30 2012/2013 05022G35KT 0800 +TSRA 
     BECMG 2015/2017 SCT010 
     BECMG 2019/2021 VRB02KT
       
DNMN 201700Z 26007KT CAVOK 35/18 Q1007
TAF DNMN 200930Z 2012/2118 24012KT CAVOK
       
DNPO 201700Z 25005KT 8000 SCT010 FEW020CB 29/25 Q1010 NOSIG
TAF DNPO 200930Z 2012/2118 25008KT 9999 BKN012 FEW020CB 
     TEMPO 2014/2019 TS 
     PROB30 2015/2019 5000-TSRA BKN009 FEW019CB 
     BECMG 2019/2021 00000KT SCT008